Time;durP1;ratioP1;P1;durP2;ratioP2;P2;SDS_P1;SDS_P2;PMS_P1;PMS_P2;Temp;Humidity;BMP_temperature;BMP_pressure;BME280_temperature;BME280_humidity;BME280_pressure;Samples;Min_cycle;Max_cycle;Signal;HPM_P1;HPM_P2
2021/11/24 00:01:15;;;;;;;2.00;0.73;;;;;;;;;;4998998;28;20058;-82
2021/11/24 00:03:41;;;;;;;2.85;0.85;;;;;;;;;;5004979;28;20058;-82
2021/11/24 00:06:08;;;;;;;2.50;0.60;;;;;;;;;;5006137;28;20072;-81
2021/11/24 00:08:34;;;;;;;2.15;0.90;;;;;;;;;;5009549;28;20643;-81
2021/11/24 00:11:00;;;;;;;1.75;0.70;;;;;;;;;;5008846;28;20069;-83
2021/11/24 00:13:27;;;;;;;3.88;0.93;;;;;;;;;;5006829;28;20528;-82
2021/11/24 00:15:53;;;;;;;3.10;0.77;;;;;;;;;;5008289;28;20042;-81
2021/11/24 00:18:20;;;;;;;2.13;0.80;;;;;;;;;;5011976;28;20061;-81
2021/11/24 00:20:46;;;;;;;2.25;0.80;;;;;;;;;;5005037;28;20057;-81
2021/11/24 00:23:13;;;;;;;2.58;0.80;;;;;;;;;;5013183;28;20447;-82
2021/11/24 00:25:39;;;;;;;1.95;0.52;;;;;;;;;;5006383;28;20573;-79
2021/11/24 00:28:05;;;;;;;3.80;0.80;;;;;;;;;;5006150;28;20049;-80
2021/11/24 00:30:32;;;;;;;2.13;0.80;;;;;;;;;;5009690;28;20108;-82
2021/11/24 00:32:58;;;;;;;2.63;0.88;;;;;;;;;;5006293;28;20143;-80
2021/11/24 00:35:25;;;;;;;2.90;0.80;;;;;;;;;;5008958;28;20066;-80
2021/11/24 00:37:51;;;;;;;3.20;0.65;;;;;;;;;;5005982;28;20100;-81
2021/11/24 00:40:18;;;;;;;3.40;0.68;;;;;;;;;;5007629;28;20745;-80
2021/11/24 00:42:44;;;;;;;2.28;0.90;;;;;;;;;;5005898;28;20030;-79
2021/11/24 00:45:11;;;;;;;1.83;0.82;;;;;;;;;;5003316;28;20057;-81
2021/11/24 00:47:37;;;;;;;2.42;0.73;;;;;;;;;;4999867;28;20062;-80
2021/11/24 00:50:05;;;;;;;2.30;0.60;;;;;;;;;;5007597;28;22612;-82
2021/11/24 00:52:31;;;;;;;1.42;0.60;;;;;;;;;;5006742;28;20068;-81
2021/11/24 00:54:58;;;;;;;2.38;0.65;;;;;;;;;;5012363;28;20066;-82
2021/11/24 00:57:25;;;;;;;3.38;0.68;;;;;;;;;;5005307;28;20069;-81
2021/11/24 00:59:52;;;;;;;1.85;0.50;;;;;;;;;;4984956;28;20069;-81
2021/11/24 01:02:18;;;;;;;2.60;0.80;;;;;;;;;;4988789;28;20066;-82
2021/11/24 01:04:44;;;;;;;2.35;0.70;;;;;;;;;;4986883;28;20046;-80
2021/11/24 01:07:11;;;;;;;2.90;0.80;;;;;;;;;;4989022;28;20439;-81
2021/11/24 01:09:37;;;;;;;1.35;0.60;;;;;;;;;;4993348;28;20509;-82
2021/11/24 01:12:04;;;;;;;2.08;0.70;;;;;;;;;;4984947;28;20039;-83
2021/11/24 01:14:30;;;;;;;1.58;0.70;;;;;;;;;;4984268;28;20062;-81
2021/11/24 01:16:57;;;;;;;3.03;0.70;;;;;;;;;;4992362;28;20072;-82
2021/11/24 01:19:23;;;;;;;1.70;0.50;;;;;;;;;;4990701;28;20167;-82
2021/11/24 01:21:50;;;;;;;3.85;0.70;;;;;;;;;;4991673;28;20077;-82
2021/11/24 01:24:16;;;;;;;1.80;0.60;;;;;;;;;;4991638;28;20061;-80
2021/11/24 01:26:44;;;;;;;1.33;0.63;;;;;;;;;;4992887;28;20065;-83
2021/11/24 01:29:10;;;;;;;3.85;1.02;;;;;;;;;;4989877;28;20140;-82
2021/11/24 01:31:37;;;;;;;1.33;0.60;;;;;;;;;;4994752;28;20721;-82
2021/11/24 01:34:03;;;;;;;2.30;0.80;;;;;;;;;;4988472;28;20047;-80
2021/11/24 01:36:30;;;;;;;1.45;0.77;;;;;;;;;;4988824;28;20113;-81
2021/11/24 01:38:56;;;;;;;2.80;0.70;;;;;;;;;;4990785;28;20069;-80
2021/11/24 01:41:22;;;;;;;2.03;0.60;;;;;;;;;;4990121;28;20120;-81
2021/11/24 01:43:49;;;;;;;2.28;0.60;;;;;;;;;;4990363;28;20521;-81
2021/11/24 01:46:15;;;;;;;2.58;0.65;;;;;;;;;;4991034;28;20061;-82
2021/11/24 01:48:42;;;;;;;1.95;0.52;;;;;;;;;;4981165;28;20069;-81
2021/11/24 01:51:08;;;;;;;1.58;0.73;;;;;;;;;;4974373;28;20897;-81
2021/11/24 01:53:35;;;;;;;2.33;0.50;;;;;;;;;;4995981;28;20470;-80
2021/11/24 01:56:01;;;;;;;3.45;0.55;;;;;;;;;;4986732;28;20066;-81
2021/11/24 01:58:28;;;;;;;1.40;0.50;;;;;;;;;;4979259;28;20069;-82
2021/11/24 02:00:54;;;;;;;2.20;0.77;;;;;;;;;;4979473;28;20137;-82
2021/11/24 02:03:20;;;;;;;2.58;0.70;;;;;;;;;;4989928;28;20085;-82
2021/11/24 02:05:47;;;;;;;2.15;0.70;;;;;;;;;;4989070;28;20065;-81
2021/11/24 02:08:13;;;;;;;1.13;0.40;;;;;;;;;;4988166;28;20683;-82
2021/11/24 02:10:40;;;;;;;1.92;0.50;;;;;;;;;;4992101;28;20070;-84
2021/11/24 02:13:06;;;;;;;2.63;0.40;;;;;;;;;;4989631;28;20085;-82
2021/11/24 02:15:32;;;;;;;2.25;0.40;;;;;;;;;;4989728;28;20053;-82
2021/11/24 02:18:03;;;;;;;1.33;0.60;;;;;;;;;;4977689;28;20050;-81
2021/11/24 02:20:37;;;;;;;0.88;0.32;;;;;;;;;;4990637;28;20097;-81
2021/11/24 02:23:05;;;;;;;1.80;0.65;;;;;;;;;;4988998;28;20470;-79
2021/11/24 02:25:32;;;;;;;3.05;0.60;;;;;;;;;;4993201;28;20112;-79
2021/11/24 02:27:59;;;;;;;2.10;0.50;;;;;;;;;;4987934;28;20054;-80
2021/11/24 02:30:25;;;;;;;2.38;0.80;;;;;;;;;;4990059;28;20048;-80
2021/11/24 02:32:52;;;;;;;1.65;0.40;;;;;;;;;;4984946;28;20062;-79
2021/11/24 02:35:18;;;;;;;1.30;0.55;;;;;;;;;;4988095;28;20120;-80
2021/11/24 02:37:45;;;;;;;2.25;0.40;;;;;;;;;;4986841;28;20116;-79
2021/11/24 02:40:11;;;;;;;1.17;0.50;;;;;;;;;;4989906;28;20100;-80
2021/11/24 02:42:39;;;;;;;1.05;0.47;;;;;;;;;;4992340;28;20061;-80
2021/11/24 02:45:05;;;;;;;2.45;0.52;;;;;;;;;;4982799;28;20122;-80
2021/11/24 02:47:32;;;;;;;2.40;0.68;;;;;;;;;;4969673;28;20054;-80
2021/11/24 02:50:03;;;;;;;3.38;0.80;;;;;;;;;;4986284;28;20061;-81
2021/11/24 02:52:31;;;;;;;1.48;0.40;;;;;;;;;;4988487;28;20132;-79
2021/11/24 02:54:59;;;;;;;2.88;0.68;;;;;;;;;;4970205;28;20150;-81
2021/11/24 02:57:33;;;;;;;2.17;0.50;;;;;;;;;;4989673;28;20066;-81
2021/11/24 03:00:00;;;;;;;1.38;0.47;;;;;;;;;;4983291;28;20049;-80
2021/11/24 03:02:27;;;;;;;1.55;0.40;;;;;;;;;;4984866;28;20745;-80
2021/11/24 03:04:54;;;;;;;1.48;0.40;;;;;;;;;;4982737;28;20125;-80
2021/11/24 03:07:21;;;;;;;1.70;0.40;;;;;;;;;;4987802;28;20120;-81
2021/11/24 03:09:49;;;;;;;1.02;0.40;;;;;;;;;;4987043;28;20074;-81
2021/11/24 03:12:15;;;;;;;1.10;0.50;;;;;;;;;;4989108;28;20463;-81
2021/11/24 03:14:42;;;;;;;1.40;0.50;;;;;;;;;;4971042;28;20112;-81
2021/11/24 03:17:08;;;;;;;2.97;0.57;;;;;;;;;;4985974;28;20058;-81
2021/11/24 03:19:34;;;;;;;0.93;0.40;;;;;;;;;;4989644;28;20092;-81
2021/11/24 03:22:01;;;;;;;2.67;0.50;;;;;;;;;;4985496;28;20077;-81
2021/11/24 03:24:27;;;;;;;1.38;0.50;;;;;;;;;;4986136;28;20557;-80
2021/11/24 03:26:53;;;;;;;1.73;0.50;;;;;;;;;;4986145;28;20138;-79
2021/11/24 03:29:20;;;;;;;0.80;0.43;;;;;;;;;;4990000;28;20498;-80
2021/11/24 03:31:46;;;;;;;3.53;0.70;;;;;;;;;;4969501;28;20065;-80
2021/11/24 03:34:13;;;;;;;2.35;0.50;;;;;;;;;;4987248;28;20070;-80
2021/11/24 03:36:39;;;;;;;1.70;0.50;;;;;;;;;;4985551;28;20073;-80
2021/11/24 03:39:06;;;;;;;1.88;0.45;;;;;;;;;;4987972;28;20090;-80
2021/11/24 03:41:32;;;;;;;2.95;0.70;;;;;;;;;;4988961;28;20112;-80
2021/11/24 03:43:59;;;;;;;0.93;0.40;;;;;;;;;;4984319;28;20066;-80
2021/11/24 03:46:25;;;;;;;2.08;0.70;;;;;;;;;;4989161;28;20058;-80
2021/11/24 03:48:52;;;;;;;1.77;0.38;;;;;;;;;;4986155;28;20506;-79
2021/11/24 03:51:18;;;;;;;2.17;0.38;;;;;;;;;;4986116;28;20101;-80
2021/11/24 03:53:45;;;;;;;0.70;0.25;;;;;;;;;;4984432;28;20058;-79
2021/11/24 03:56:12;;;;;;;1.77;0.40;;;;;;;;;;4982122;28;21359;-80
2021/11/24 03:58:39;;;;;;;1.30;0.45;;;;;;;;;;4994185;28;20096;-81
2021/11/24 04:01:06;;;;;;;2.17;0.40;;;;;;;;;;5004838;28;20143;-81
2021/11/24 04:03:33;;;;;;;2.50;0.50;;;;;;;;;;4989986;28;20135;-80
2021/11/24 04:05:59;;;;;;;1.58;0.45;;;;;;;;;;5004907;28;20057;-79
2021/11/24 04:08:26;;;;;;;1.10;0.30;;;;;;;;;;4988042;28;20076;-80
2021/11/24 04:10:52;;;;;;;2.38;0.60;;;;;;;;;;5010590;28;20077;-81
2021/11/24 04:13:19;;;;;;;1.55;0.32;;;;;;;;;;4996199;28;20102;-81
2021/11/24 04:15:45;;;;;;;3.08;0.32;;;;;;;;;;5006865;28;20669;-83
2021/11/24 04:18:13;;;;;;;0.90;0.28;;;;;;;;;;5007545;28;20045;-82
2021/11/24 04:20:39;;;;;;;1.38;0.50;;;;;;;;;;5004709;28;20065;-81
2021/11/24 04:23:05;;;;;;;1.13;0.40;;;;;;;;;;5002598;28;20092;-80
2021/11/24 04:25:32;;;;;;;2.97;0.60;;;;;;;;;;4997215;28;20505;-79
2021/11/24 04:27:58;;;;;;;1.40;0.47;;;;;;;;;;4997449;28;20068;-79
2021/11/24 04:30:25;;;;;;;1.45;0.45;;;;;;;;;;4997795;28;20076;-80
2021/11/24 04:32:51;;;;;;;1.58;0.32;;;;;;;;;;4995833;28;20061;-79
2021/11/24 04:35:18;;;;;;;1.80;0.50;;;;;;;;;;4999029;28;20140;-79
2021/11/24 04:37:45;;;;;;;3.00;0.75;;;;;;;;;;4998992;28;20040;-79
2021/11/24 04:40:11;;;;;;;2.35;0.38;;;;;;;;;;4981860;28;20065;-79
2021/11/24 04:42:40;;;;;;;0.80;0.22;;;;;;;;;;5001003;28;20069;-80
2021/11/24 04:45:06;;;;;;;2.03;0.30;;;;;;;;;;4979775;28;20038;-78
2021/11/24 04:47:33;;;;;;;0.70;0.40;;;;;;;;;;5000480;28;20505;-79
2021/11/24 04:49:59;;;;;;;1.15;0.30;;;;;;;;;;5000900;28;20070;-79
2021/11/24 04:52:26;;;;;;;0.80;0.30;;;;;;;;;;5005602;28;20049;-80
2021/11/24 04:54:53;;;;;;;1.77;0.30;;;;;;;;;;5005839;28;20060;-81
2021/11/24 04:57:19;;;;;;;1.38;0.38;;;;;;;;;;4991154;28;20065;-79
2021/11/24 04:59:46;;;;;;;1.60;0.50;;;;;;;;;;4968723;28;20045;-80
2021/11/24 05:02:13;;;;;;;2.53;0.50;;;;;;;;;;5010065;28;20130;-79
2021/11/24 05:04:39;;;;;;;1.95;0.25;;;;;;;;;;5005292;28;20548;-78
2021/11/24 05:07:06;;;;;;;1.35;0.40;;;;;;;;;;5011749;28;20057;-77
2021/11/24 05:09:34;;;;;;;1.40;0.50;;;;;;;;;;5011800;28;20237;-80
2021/11/24 05:12:00;;;;;;;1.30;0.30;;;;;;;;;;5006962;28;20514;-78
2021/11/24 05:14:32;;;;;;;2.67;0.43;;;;;;;;;;5009091;28;20459;-80
2021/11/24 05:17:00;;;;;;;1.08;0.30;;;;;;;;;;5007366;28;20127;-82
2021/11/24 05:19:29;;;;;;;1.02;0.30;;;;;;;;;;5008403;28;20152;-78
2021/11/24 05:21:55;;;;;;;1.42;0.40;;;;;;;;;;5006327;28;20439;-78
2021/11/24 05:24:22;;;;;;;1.75;0.40;;;;;;;;;;5009715;28;20030;-78
2021/11/24 05:26:49;;;;;;;0.47;0.20;;;;;;;;;;5010250;28;20084;-77
2021/11/24 05:29:16;;;;;;;0.88;0.40;;;;;;;;;;5007432;28;20084;-77
2021/11/24 05:31:42;;;;;;;1.48;0.38;;;;;;;;;;5010926;28;20737;-77
2021/11/24 05:34:09;;;;;;;1.15;0.40;;;;;;;;;;4994038;28;20526;-82
2021/11/24 05:36:36;;;;;;;0.38;0.22;;;;;;;;;;5013606;28;20061;-79
2021/11/24 05:39:07;;;;;;;1.15;0.50;;;;;;;;;;5011978;28;20068;-79
2021/11/24 05:41:38;;;;;;;2.60;0.50;;;;;;;;;;5012792;28;20053;-79
2021/11/24 05:44:16;;;;;;;0.82;0.38;;;;;;;;;;5010514;28;20048;-78
2021/11/24 05:46:47;;;;;;;1.48;0.50;;;;;;;;;;5012334;28;20823;-79
2021/11/24 05:49:14;;;;;;;1.00;0.22;;;;;;;;;;5015045;28;21378;-78
2021/11/24 05:51:40;;;;;;;0.70;0.32;;;;;;;;;;5010778;28;20572;-80
2021/11/24 05:54:07;;;;;;;1.05;0.30;;;;;;;;;;5010886;28;20081;-79
2021/11/24 05:56:36;;;;;;;3.00;0.50;;;;;;;;;;5011837;28;20069;-80
2021/11/24 05:59:03;;;;;;;3.58;0.80;;;;;;;;;;5010768;28;20763;-79
2021/11/24 06:01:30;;;;;;;2.92;0.43;;;;;;;;;;5010500;28;20120;-79
2021/11/24 06:03:56;;;;;;;0.70;0.30;;;;;;;;;;5010035;28;20054;-79
2021/11/24 06:06:23;;;;;;;1.27;0.40;;;;;;;;;;4992159;28;20073;-78
2021/11/24 06:08:49;;;;;;;0.95;0.30;;;;;;;;;;5004286;28;20050;-78
2021/11/24 06:11:16;;;;;;;0.80;0.30;;;;;;;;;;5005461;28;20064;-80
2021/11/24 06:13:42;;;;;;;2.17;0.22;;;;;;;;;;5001450;28;20041;-79
2021/11/24 06:16:08;;;;;;;1.05;0.32;;;;;;;;;;5007621;28;20061;-79
2021/11/24 06:18:35;;;;;;;0.45;0.20;;;;;;;;;;5014623;28;20113;-79
2021/11/24 06:21:01;;;;;;;1.50;0.40;;;;;;;;;;5006257;28;20528;-78
2021/11/24 06:23:28;;;;;;;0.60;0.30;;;;;;;;;;4992054;28;20132;-79
2021/11/24 06:25:54;;;;;;;1.83;0.43;;;;;;;;;;5008847;28;20061;-80
2021/11/24 06:28:21;;;;;;;0.82;0.20;;;;;;;;;;5008610;28;20058;-78
2021/11/24 06:30:47;;;;;;;1.10;0.40;;;;;;;;;;5008027;28;20102;-77
2021/11/24 06:33:14;;;;;;;1.75;0.40;;;;;;;;;;5011144;28;20072;-79
2021/11/24 06:35:40;;;;;;;0.82;0.17;;;;;;;;;;5007846;28;20066;-79
2021/11/24 06:38:07;;;;;;;0.52;0.20;;;;;;;;;;5010673;28;20634;-79
2021/11/24 06:40:33;;;;;;;1.23;0.30;;;;;;;;;;5007684;28;20493;-79
2021/11/24 06:43:00;;;;;;;1.23;0.40;;;;;;;;;;5008009;28;20108;-79
2021/11/24 06:45:26;;;;;;;0.88;0.40;;;;;;;;;;5007638;28;20072;-78
2021/11/24 06:47:52;;;;;;;1.45;0.30;;;;;;;;;;5010601;28;20151;-80
2021/11/24 06:50:19;;;;;;;0.47;0.22;;;;;;;;;;5007459;28;20431;-78
2021/11/24 06:52:45;;;;;;;0.55;0.30;;;;;;;;;;5004176;28;20635;-80
2021/11/24 06:55:12;;;;;;;1.05;0.38;;;;;;;;;;5005924;28;20343;-80
2021/11/24 06:57:39;;;;;;;1.63;0.30;;;;;;;;;;5005347;28;20061;-79
2021/11/24 07:00:06;;;;;;;1.20;0.30;;;;;;;;;;5006937;28;20695;-80
2021/11/24 07:02:32;;;;;;;1.08;0.40;;;;;;;;;;5008008;28;20061;-80
2021/11/24 07:04:58;;;;;;;0.25;0.20;;;;;;;;;;5006576;28;20057;-80
2021/11/24 07:07:25;;;;;;;3.40;0.55;;;;;;;;;;5007401;28;20078;-80
2021/11/24 07:09:51;;;;;;;1.17;0.32;;;;;;;;;;5005263;28;20066;-80
2021/11/24 07:12:23;;;;;;;1.05;0.38;;;;;;;;;;5005188;28;20065;-79
2021/11/24 07:14:49;;;;;;;0.90;0.30;;;;;;;;;;5004782;28;20062;-79
2021/11/24 07:17:16;;;;;;;1.60;0.30;;;;;;;;;;5005866;28;20595;-79
2021/11/24 07:19:42;;;;;;;2.28;0.40;;;;;;;;;;5006298;28;20524;-79
2021/11/24 07:22:09;;;;;;;0.47;0.20;;;;;;;;;;5006247;28;20073;-81
2021/11/24 07:24:35;;;;;;;0.90;0.30;;;;;;;;;;5007796;28;20041;-80
2021/11/24 07:27:01;;;;;;;6.70;0.95;;;;;;;;;;4989932;28;20453;-80
2021/11/24 07:29:28;;;;;;;1.70;0.40;;;;;;;;;;5008204;28;20081;-81
2021/11/24 07:31:54;;;;;;;1.35;0.45;;;;;;;;;;5005004;28;20054;-81
2021/11/24 07:34:21;;;;;;;2.10;0.40;;;;;;;;;;5008833;28;20057;-80
2021/11/24 07:36:47;;;;;;;0.77;0.30;;;;;;;;;;5007394;28;20068;-80
2021/11/24 07:39:14;;;;;;;1.80;0.28;;;;;;;;;;5007107;28;20506;-81
2021/11/24 07:41:40;;;;;;;0.93;0.30;;;;;;;;;;5009533;28;20056;-84
2021/11/24 07:44:07;;;;;;;1.70;0.50;;;;;;;;;;5007078;28;20058;-82
2021/11/24 07:46:33;;;;;;;1.70;0.30;;;;;;;;;;5008099;28;20092;-82
2021/11/24 07:49:00;;;;;;;2.13;0.40;;;;;;;;;;5006073;28;20033;-81
2021/11/24 07:51:27;;;;;;;1.45;0.30;;;;;;;;;;5003457;28;20529;-82
2021/11/24 07:53:54;;;;;;;0.68;0.40;;;;;;;;;;5004613;28;20508;-82
2021/11/24 07:56:21;;;;;;;0.85;0.30;;;;;;;;;;5005061;28;20596;-82
2021/11/24 07:58:47;;;;;;;1.38;0.40;;;;;;;;;;4982855;28;20073;-83
2021/11/24 08:01:14;;;;;;;1.27;0.47;;;;;;;;;;5007611;28;20064;-83
2021/11/24 08:03:40;;;;;;;2.10;0.50;;;;;;;;;;5008283;28;20069;-83
2021/11/24 08:06:07;;;;;;;0.95;0.40;;;;;;;;;;5003382;28;20061;-84
2021/11/24 08:08:34;;;;;;;2.53;0.50;;;;;;;;;;5004889;28;20057;-84
2021/11/24 08:11:00;;;;;;;1.80;0.40;;;;;;;;;;5005286;28;20061;-85
2021/11/24 08:13:30;;;;;;;0.50;0.30;;;;;;;;;;4986791;28;20080;-86
2021/11/24 08:15:59;;;;;;;2.45;0.60;;;;;;;;;;5005082;28;20054;-88
2021/11/24 08:18:26;;;;;;;2.15;0.43;;;;;;;;;;5006050;28;20518;-85
2021/11/24 08:20:54;;;;;;;0.73;0.20;;;;;;;;;;5008809;28;20049;-88
2021/11/24 08:23:20;;;;;;;0.77;0.40;;;;;;;;;;5012650;28;20037;-87
2021/11/24 08:25:47;;;;;;;1.50;0.47;;;;;;;;;;4987202;28;20068;-80
2021/11/24 08:28:13;;;;;;;1.85;0.30;;;;;;;;;;5010356;28;20034;-84
2021/11/24 08:30:40;;;;;;;0.80;0.32;;;;;;;;;;5015086;28;20064;-86
2021/11/24 08:33:07;;;;;;;1.42;0.43;;;;;;;;;;4991485;28;20061;-86
2021/11/24 08:35:34;;;;;;;0.95;0.45;;;;;;;;;;5009156;28;20084;-85
2021/11/24 08:38:06;;;;;;;0.98;0.32;;;;;;;;;;4993099;28;20057;-84
2021/11/24 08:40:32;;;;;;;1.10;0.47;;;;;;;;;;4983236;28;20042;-84
2021/11/24 08:43:01;;;;;;;1.60;0.50;;;;;;;;;;4999099;28;20038;-84
2021/11/24 08:45:28;;;;;;;0.70;0.32;;;;;;;;;;5008950;28;20397;-83
2021/11/24 08:47:54;;;;;;;1.45;0.35;;;;;;;;;;5007721;28;20053;-84
2021/11/24 08:50:21;;;;;;;1.65;0.50;;;;;;;;;;5006309;28;20103;-84
2021/11/24 08:52:48;;;;;;;1.73;0.50;;;;;;;;;;5001949;28;20066;-87
2021/11/24 08:55:15;;;;;;;2.33;0.50;;;;;;;;;;5006094;28;20049;-87
2021/11/24 08:57:42;;;;;;;0.65;0.30;;;;;;;;;;5005693;28;20131;-86
2021/11/24 09:00:10;;;;;;;1.27;0.35;;;;;;;;;;5006474;28;20073;-85
2021/11/24 09:02:36;;;;;;;1.48;0.38;;;;;;;;;;5002627;28;20553;-85
2021/11/24 09:05:04;;;;;;;1.85;0.47;;;;;;;;;;5002071;28;20070;-83
2021/11/24 09:07:31;;;;;;;2.13;0.63;;;;;;;;;;4988002;28;20096;-85
2021/11/24 09:09:57;;;;;;;3.08;0.50;;;;;;;;;;5005779;28;20114;-84
2021/11/24 09:12:24;;;;;;;1.35;0.40;;;;;;;;;;4988133;28;20065;-85
2021/11/24 09:14:50;;;;;;;2.08;0.52;;;;;;;;;;5005711;28;20064;-85
2021/11/24 09:17:17;;;;;;;1.95;0.40;;;;;;;;;;5005868;28;20069;-85
2021/11/24 09:19:45;;;;;;;3.10;0.57;;;;;;;;;;5005933;28;20080;-84
2021/11/24 09:22:12;;;;;;;3.17;0.45;;;;;;;;;;4985648;28;20112;-85
2021/11/24 09:24:40;;;;;;;2.47;0.55;;;;;;;;;;5008953;28;20064;-84
2021/11/24 09:27:13;;;;;;;2.72;0.77;;;;;;;;;;4997472;28;20067;-84
2021/11/24 09:29:43;;;;;;;2.95;0.70;;;;;;;;;;4991046;28;20054;-83
2021/11/24 09:32:10;;;;;;;2.88;0.40;;;;;;;;;;4988840;28;20490;-85
2021/11/24 09:34:36;;;;;;;2.83;0.85;;;;;;;;;;4998321;28;20030;-86
2021/11/24 09:37:03;;;;;;;2.08;0.50;;;;;;;;;;5006757;28;20501;-86
2021/11/24 09:39:29;;;;;;;1.95;0.55;;;;;;;;;;4994780;28;20053;-84
2021/11/24 09:41:57;;;;;;;2.42;0.88;;;;;;;;;;5011920;28;20065;-85
2021/11/24 09:44:23;;;;;;;1.52;0.47;;;;;;;;;;5012349;28;20057;-86
2021/11/24 09:46:51;;;;;;;3.28;0.60;;;;;;;;;;5002185;28;20421;-84
2021/11/24 09:49:18;;;;;;;1.30;0.35;;;;;;;;;;4985178;28;20038;-85
2021/11/24 09:51:44;;;;;;;2.42;0.60;;;;;;;;;;5008889;28;20065;-85
2021/11/24 09:54:11;;;;;;;1.45;0.50;;;;;;;;;;5011087;28;20067;-84
2021/11/24 09:56:40;;;;;;;2.40;0.50;;;;;;;;;;5015269;28;20061;-86
2021/11/24 09:59:07;;;;;;;2.53;0.45;;;;;;;;;;5010459;28;20115;-84
2021/11/24 10:01:33;;;;;;;2.58;0.50;;;;;;;;;;4998330;28;20030;-85
2021/11/24 10:04:03;;;;;;;1.55;0.40;;;;;;;;;;5010329;28;20058;-83
2021/11/24 10:06:34;;;;;;;1.73;0.70;;;;;;;;;;5009919;28;20108;-85
2021/11/24 10:09:01;;;;;;;2.85;0.77;;;;;;;;;;5000131;28;20026;-85
2021/11/24 10:11:28;;;;;;;3.28;0.50;;;;;;;;;;4983706;28;20116;-85
2021/11/24 10:13:55;;;;;;;1.35;0.40;;;;;;;;;;5011971;28;20046;-85
2021/11/24 10:16:25;;;;;;;1.27;0.40;;;;;;;;;;4993828;28;20037;-84
2021/11/24 10:18:59;;;;;;;1.27;0.30;;;;;;;;;;5010398;28;20054;-84
2021/11/24 10:21:26;;;;;;;2.47;0.70;;;;;;;;;;5012597;28;20033;-85
2021/11/24 10:23:53;;;;;;;2.03;0.40;;;;;;;;;;4976090;28;20038;-83
2021/11/24 10:26:20;;;;;;;0.88;0.30;;;;;;;;;;5011425;28;20066;-86
2021/11/24 10:28:59;;;;;;;1.25;0.40;;;;;;;;;;4990436;28;20057;-86
2021/11/24 10:31:46;;;;;;;1.83;0.35;;;;;;;;;;4998063;28;20370;-87
2021/11/24 10:34:20;;;;;;;0.93;0.40;;;;;;;;;;4998047;28;20279;-86
2021/11/24 10:36:50;;;;;;;1.95;0.63;;;;;;;;;;5008667;28;20060;-86
2021/11/24 10:39:16;;;;;;;1.75;0.47;;;;;;;;;;5008212;28;20038;-85
2021/11/24 10:41:43;;;;;;;1.15;0.40;;;;;;;;;;5010082;28;20518;-88
2021/11/24 10:44:09;;;;;;;1.40;0.40;;;;;;;;;;5008456;28;20112;-90
2021/11/24 10:46:37;;;;;;;1.75;0.50;;;;;;;;;;4994033;28;20100;-88
2021/11/24 10:49:05;;;;;;;1.48;0.30;;;;;;;;;;4990202;28;20035;-88
2021/11/24 10:51:34;;;;;;;1.02;0.20;;;;;;;;;;5009125;28;20069;-86
2021/11/24 10:54:10;;;;;;;1.77;0.32;;;;;;;;;;4991286;28;20116;-90
2021/11/24 10:56:55;;;;;;;1.65;0.50;;;;;;;;;;5008463;28;20034;-89
2021/11/24 10:59:21;;;;;;;0.63;0.30;;;;;;;;;;5011356;28;21330;-86
2021/11/24 11:01:48;;;;;;;1.52;0.50;;;;;;;;;;5014391;28;20100;-85
2021/11/24 11:04:14;;;;;;;1.35;0.40;;;;;;;;;;5014082;28;20123;-84
2021/11/24 11:06:42;;;;;;;1.45;0.40;;;;;;;;;;5008769;28;20034;-85
2021/11/24 11:09:11;;;;;;;0.30;0.20;;;;;;;;;;5011440;28;20611;-83
2021/11/24 11:11:38;;;;;;;1.52;0.32;;;;;;;;;;5009523;28;20049;-84
2021/11/24 11:14:37;;;;;;;1.67;0.47;;;;;;;;;;5014333;28;20033;-84
2021/11/24 11:17:04;;;;;;;1.05;0.32;;;;;;;;;;4979787;28;20030;-85
2021/11/24 11:19:36;;;;;;;0.35;0.20;;;;;;;;;;5010144;28;20214;-85
2021/11/24 11:22:03;;;;;;;1.20;0.50;;;;;;;;;;5010624;28;20022;-85
2021/11/24 11:24:29;;;;;;;1.15;0.30;;;;;;;;;;4994623;28;20022;-83
2021/11/24 11:26:56;;;;;;;1.23;0.32;;;;;;;;;;5003844;28;20068;-84
2021/11/24 11:29:24;;;;;;;0.98;0.28;;;;;;;;;;5010319;28;20033;-84
2021/11/24 11:31:51;;;;;;;4.28;0.52;;;;;;;;;;5010245;28;20042;-84
2021/11/24 11:34:17;;;;;;;0.30;0.30;;;;;;;;;;5010246;28;20401;-84
2021/11/24 11:36:44;;;;;;;1.40;0.40;;;;;;;;;;5008713;28;20061;-86
2021/11/24 11:39:10;;;;;;;1.67;0.50;;;;;;;;;;5015245;28;20497;-85
2021/11/24 11:41:38;;;;;;;1.58;0.40;;;;;;;;;;5014449;28;20034;-84
2021/11/24 11:44:05;;;;;;;1.48;0.45;;;;;;;;;;4993813;28;20084;-85
2021/11/24 11:46:33;;;;;;;0.80;0.30;;;;;;;;;;5014341;28;20073;-85
2021/11/24 11:49:11;;;;;;;1.00;0.40;;;;;;;;;;5008688;28;20030;-83
2021/11/24 11:51:39;;;;;;;1.42;0.30;;;;;;;;;;5011188;28;20091;-84
2021/11/24 11:54:10;;;;;;;1.48;0.43;;;;;;;;;;5008742;28;20108;-84
2021/11/24 11:56:44;;;;;;;0.85;0.45;;;;;;;;;;5015088;28;20034;-85
2021/11/24 11:59:22;;;;;;;1.65;0.60;;;;;;;;;;5002916;28;20035;-85
2021/11/24 12:01:54;;;;;;;2.45;0.55;;;;;;;;;;4990292;28;20062;-83
2021/11/24 12:04:20;;;;;;;1.83;0.30;;;;;;;;;;4991894;28;20043;-86
2021/11/24 12:06:52;;;;;;;0.52;0.20;;;;;;;;;;4992835;28;20102;-82
2021/11/24 12:09:19;;;;;;;1.75;0.50;;;;;;;;;;4989089;28;21552;-84
2021/11/24 12:12:12;;;;;;;2.15;0.40;;;;;;;;;;4987396;28;20625;-85
2021/11/24 12:14:51;;;;;;;1.75;0.50;;;;;;;;;;4968900;28;22165;-84
2021/11/24 12:17:30;;;;;;;1.13;0.32;;;;;;;;;;4994374;28;21046;-85
2021/11/24 12:20:01;;;;;;;1.90;0.50;;;;;;;;;;4992257;28;20104;-82
2021/11/24 12:22:49;;;;;;;1.58;0.43;;;;;;;;;;4998323;28;20034;-84
2021/11/24 12:25:28;;;;;;;2.40;0.60;;;;;;;;;;4992936;28;21242;-83
2021/11/24 12:27:57;;;;;;;1.40;0.60;;;;;;;;;;4991499;28;20034;-85
2021/11/24 12:33:19;;;;;;;1.00;0.43;;;;;;;;;;4991251;28;20078;-84
2021/11/24 12:36:04;;;;;;;0.80;0.40;;;;;;;;;;4997215;28;20165;-84
2021/11/24 12:38:32;;;;;;;1.00;0.50;;;;;;;;;;4986958;28;22251;-85
2021/11/24 12:41:00;;;;;;;0.88;0.40;;;;;;;;;;4995849;28;20030;-84
2021/11/24 12:43:29;;;;;;;1.02;0.38;;;;;;;;;;4991648;28;20034;-83
2021/11/24 12:46:07;;;;;;;0.98;0.30;;;;;;;;;;4984547;28;20066;-84
2021/11/24 12:48:35;;;;;;;2.08;0.68;;;;;;;;;;4973348;28;20061;-86
2021/11/24 12:51:04;;;;;;;2.00;0.50;;;;;;;;;;4989026;28;20027;-86
2021/11/24 12:53:36;;;;;;;2.35;0.70;;;;;;;;;;4988599;28;20084;-85
2021/11/24 12:56:07;;;;;;;1.60;0.40;;;;;;;;;;4984993;28;20852;-86
2021/11/24 12:58:33;;;;;;;2.53;0.68;;;;;;;;;;4969653;28;20034;-86
2021/11/24 13:01:20;;;;;;;1.20;0.50;;;;;;;;;;4988407;28;20054;-86
2021/11/24 13:03:48;;;;;;;1.45;0.40;;;;;;;;;;4987631;28;20058;-87
2021/11/24 13:06:14;;;;;;;2.70;0.57;;;;;;;;;;4985357;28;20039;-86
2021/11/24 13:08:41;;;;;;;1.65;0.52;;;;;;;;;;4988481;28;20108;-85
2021/11/24 13:11:08;;;;;;;0.82;0.40;;;;;;;;;;4988316;28;20105;-85
2021/11/24 13:13:35;;;;;;;0.75;0.30;;;;;;;;;;4989759;28;20148;-84
2021/11/24 13:16:01;;;;;;;0.85;0.35;;;;;;;;;;4992899;28;20418;-86
2021/11/24 13:18:28;;;;;;;0.93;0.38;;;;;;;;;;4992081;28;20126;-87
2021/11/24 13:20:54;;;;;;;1.55;0.80;;;;;;;;;;4992172;28;20107;-87
2021/11/24 13:23:21;;;;;;;0.75;0.35;;;;;;;;;;4995971;28;20583;-86
2021/11/24 13:25:48;;;;;;;0.40;0.30;;;;;;;;;;4991998;28;20116;-86
2021/11/24 13:28:15;;;;;;;1.20;0.50;;;;;;;;;;4989665;28;20120;-85
2021/11/24 13:30:41;;;;;;;1.55;0.43;;;;;;;;;;4991244;28;20061;-86
2021/11/24 13:33:08;;;;;;;1.17;0.32;;;;;;;;;;4991793;28;20062;-86
2021/11/24 13:35:38;;;;;;;1.38;0.40;;;;;;;;;;4988399;28;20042;-86
2021/11/24 13:38:05;;;;;;;2.58;0.75;;;;;;;;;;4988818;28;20038;-84
2021/11/24 13:40:32;;;;;;;0.88;0.30;;;;;;;;;;4989998;28;20556;-84
2021/11/24 13:42:59;;;;;;;0.95;0.47;;;;;;;;;;4986193;28;20065;-86
2021/11/24 13:45:38;;;;;;;2.40;0.60;;;;;;;;;;4989504;28;20082;-85
2021/11/24 13:48:19;;;;;;;2.10;0.50;;;;;;;;;;4990740;28;20112;-84
2021/11/24 13:50:58;;;;;;;7.72;1.33;;;;;;;;;;4991070;28;20116;-84
2021/11/24 13:53:25;;;;;;;1.08;0.50;;;;;;;;;;4989885;28;20729;-86
2021/11/24 13:56:11;;;;;;;1.25;0.47;;;;;;;;;;4990593;28;20062;-84
2021/11/24 13:58:38;;;;;;;1.88;0.47;;;;;;;;;;5000507;28;20128;-86
2021/11/24 14:01:10;;;;;;;1.08;0.50;;;;;;;;;;5006672;28;20030;-85
2021/11/24 14:03:37;;;;;;;1.30;0.60;;;;;;;;;;5013048;28;20065;-84
2021/11/24 14:06:04;;;;;;;1.48;0.40;;;;;;;;;;5010117;28;20493;-85
2021/11/24 14:08:37;;;;;;;1.45;0.50;;;;;;;;;;5005872;28;20065;-84
2021/11/24 14:11:03;;;;;;;0.77;0.32;;;;;;;;;;5009246;28;20053;-86
2021/11/24 14:13:34;;;;;;;0.85;0.43;;;;;;;;;;5008834;28;20097;-84
2021/11/24 14:16:10;;;;;;;1.73;0.57;;;;;;;;;;5002967;28;20144;-86
2021/11/24 14:18:36;;;;;;;0.80;0.30;;;;;;;;;;5015218;28;20363;-85
2021/11/24 14:21:03;;;;;;;0.82;0.30;;;;;;;;;;5024767;28;20069;-84
2021/11/24 14:23:29;;;;;;;1.83;0.70;;;;;;;;;;5008188;28;20045;-86
2021/11/24 14:25:56;;;;;;;1.17;0.60;;;;;;;;;;5009661;28;20061;-86
2021/11/24 14:28:32;;;;;;;1.10;0.50;;;;;;;;;;5011155;28;20108;-85
2021/11/24 14:30:59;;;;;;;1.33;0.40;;;;;;;;;;5009093;28;20069;-85
2021/11/24 14:33:27;;;;;;;1.85;0.45;;;;;;;;;;5010097;28;20054;-84
2021/11/24 14:35:53;;;;;;;0.95;0.45;;;;;;;;;;5008495;28;20123;-86
2021/11/24 14:38:20;;;;;;;1.33;0.50;;;;;;;;;;5008174;28;20060;-85
2021/11/24 14:40:46;;;;;;;0.85;0.50;;;;;;;;;;5010507;28;20058;-84
2021/11/24 14:43:13;;;;;;;0.90;0.50;;;;;;;;;;5000015;28;20104;-85
2021/11/24 14:45:40;;;;;;;1.15;0.30;;;;;;;;;;5008657;28;20058;-84
2021/11/24 14:48:07;;;;;;;1.27;0.30;;;;;;;;;;4990763;28;20100;-86
2021/11/24 14:50:33;;;;;;;0.88;0.47;;;;;;;;;;5010018;28;20061;-85